This is the latest recevied weather packets stored in our database for station/object K0SDS. If no packets are shown the sender has not sent any weather packets the latest 10 day(s).
| Time | Temp. | Humidity | Pressure | Rain* | Wind** | Luminosity | Snow |
|---|---|---|---|---|---|---|---|
| 1777726160 | 6.11° C | 83% | 1021.7 hPa | 0 mm | - | 58 W/m² | - |
| 1777725856 | 5° C | 85% | 1021.7 hPa | 0 mm | - | 55 W/m² | - |
| 1777725555 | 4.44° C | 89% | 1021.7 hPa | 0 mm | - | 49 W/m² | - |
| 1777725251 | 3.33° C | 92% | 1021.5 hPa | 0 mm | - | 45 W/m² | - |
| 1777724948 | 2.78° C | 92% | 1021.6 hPa | 0 mm | - | 40 W/m² | - |
| 1777724644 | 2.22° C | 93% | 1021.5 hPa | 0 mm | - | 30 W/m² | - |
| 1777724343 | 1.67° C | 93% | 1021.5 hPa | 0 mm | - | 26 W/m² | - |
| 1777724040 | 1.11° C | 93% | 1021.3 hPa | 0 mm | - | 22 W/m² | - |
| 1777723737 | 1.11° C | 93% | 1021.5 hPa | 0 mm | - | 21 W/m² | - |
| 1777723433 | 1.11° C | 93% | 1021.2 hPa | 0 mm | - | 19 W/m² | - |
| 1777723130 | 1.11° C | 93% | 1021.1 hPa | 0 mm | - | 16 W/m² | - |
| 1777722827 | 1.11° C | 93% | 1021 hPa | 0 mm | - | 15 W/m² | - |
| 1777722523 | 0.56° C | 93% | 1021 hPa | 0 mm | - | 12 W/m² | - |
| 1777722221 | 0.56° C | 93% | 1020.8 hPa | 0 mm | - | 10 W/m² | - |
| 1777721917 | 0.56° C | 92% | 1020.9 hPa | 0 mm | - | 7 W/m² | - |
| 1777721615 | 0.56° C | 92% | 1021 hPa | 0 mm | - | 5 W/m² | - |
| 1777721313 | 0.56° C | 92% | 1020.8 hPa | 0 mm | - | 3 W/m² | - |
| 1777721010 | 0.56° C | 92% | 1020.9 hPa | 0 mm | - | 1 W/m² | - |
| 1777720708 | 1.11° C | 92% | 1020.9 hPa | 0 mm | - | 0 W/m² | - |
| 1777720405 | 1.11° C | 91% | 1021 hPa | 0 mm | - | 0 W/m² | - |
| 1777720103 | 1.11° C | 91% | 1020.6 hPa | 0 mm | - | 0 W/m² | - |
| 1777719800 | 1.67° C | 91% | 1020.5 hPa | 0 mm | - | 0 W/m² | - |
| 1777719498 | 1.67° C | 91% | 1020.6 hPa | 0 mm | - | 0 W/m² | - |
| 1777719194 | 1.67° C | 91% | 1020.6 hPa | 0 mm | - | 0 W/m² | - |
| 1777718892 | 1.11° C | 91% | 1020.7 hPa | 0 mm | - | 0 W/m² | - |
* Rain latest hour (hover to see other rain measurements)
** Current wind speed in m/s (hover to see current wind gust speed)